Time;durP1;ratioP1;P1;durP2;ratioP2;P2;SDS_P1;SDS_P2;PMS_P1;PMS_P2;Temp;Humidity;BMP_temperature;BMP_pressure;BME280_temperature;BME280_humidity;BME280_pressure;Samples;Min_cycle;Max_cycle;Signal;HPM_P1;HPM_P2
2021/04/10 00:00:22;;;;;;;5.87;2.67;;;;;;;18.32;47.22;99666.22;2070217;28;20049;-69
2021/04/10 00:01:27;;;;;;;3.37;2.20;;;;;;;18.33;47.21;99667.97;2062900;28;20033;-69
2021/04/10 00:02:27;;;;;;;3.58;2.38;;;;;;;18.31;47.08;99659.91;2065588;28;20022;-69
2021/04/10 00:03:28;;;;;;;4.47;2.70;;;;;;;18.33;47.04;99657.06;2063170;28;20113;-69
2021/04/10 00:04:28;;;;;;;3.70;2.37;;;;;;;18.32;47.13;99669.81;2065362;28;20037;-69
2021/04/10 00:05:29;;;;;;;4.17;1.93;;;;;;;18.29;47.29;99661.94;2065636;28;20026;-69
2021/04/10 00:06:29;;;;;;;4.90;2.73;;;;;;;18.29;47.17;99653.75;2068558;28;20022;-69
2021/04/10 00:07:29;;;;;;;3.93;2.57;;;;;;;18.30;47.21;99663.69;2069822;28;20054;-69
2021/04/10 00:08:30;;;;;;;4.23;2.63;;;;;;;18.29;47.31;99653.75;2062971;28;20578;-69
2021/04/10 00:09:30;;;;;;;4.23;2.90;;;;;;;18.30;47.34;99655.50;2064944;28;20026;-69
2021/04/10 00:10:31;;;;;;;3.63;2.67;;;;;;;18.27;47.21;99653.06;2071005;28;20068;-70
2021/04/10 00:11:33;;;;;;;3.67;2.67;;;;;;;18.28;47.35;99649.31;2068946;28;20057;-69
2021/04/10 00:12:33;;;;;;;3.90;2.25;;;;;;;18.28;47.32;99643.88;2070397;28;20414;-69
2021/04/10 00:13:34;;;;;;;5.17;2.43;;;;;;;18.28;47.28;99646.59;2070751;28;20041;-69
2021/04/10 00:14:35;;;;;;;4.93;3.00;;;;;;;18.27;47.16;99641.28;2069931;28;20455;-70
2021/04/10 00:15:35;;;;;;;3.03;2.40;;;;;;;18.28;47.23;99643.03;2068213;28;20104;-69
2021/04/10 00:16:36;;;;;;;4.57;2.77;;;;;;;18.26;47.19;99634.97;2069691;28;20101;-69
2021/04/10 00:17:36;;;;;;;7.17;2.70;;;;;;;18.26;47.38;99634.13;2070154;28;20113;-69
2021/04/10 00:18:38;;;;;;;3.87;2.67;;;;;;;18.26;47.31;99629.53;2069594;28;20037;-70
2021/04/10 00:19:38;;;;;;;4.10;2.60;;;;;;;18.27;47.25;99624.91;2070551;28;20026;-69
2021/04/10 00:20:39;;;;;;;5.37;2.40;;;;;;;18.27;47.24;99631.22;2070759;28;20030;-69
2021/04/10 00:21:40;;;;;;;4.53;2.40;;;;;;;18.26;47.27;99626.78;2065885;28;20125;-69
2021/04/10 00:22:41;;;;;;;4.47;2.47;;;;;;;18.26;47.22;99629.53;2070390;28;20109;-69
2021/04/10 00:23:44;;;;;;;4.77;2.90;;;;;;;18.27;47.26;99631.22;2070153;28;20477;-69
2021/04/10 00:24:44;;;;;;;3.70;2.25;;;;;;;18.27;47.33;99636.69;2063508;28;20269;-69
2021/04/10 00:25:45;;;;;;;3.97;2.83;;;;;;;18.25;47.28;99622.38;2070362;28;20053;-69
2021/04/10 00:26:46;;;;;;;5.53;3.10;;;;;;;18.24;47.21;99620.63;2067496;28;20037;-70
2021/04/10 00:27:46;;;;;;;3.47;2.67;;;;;;;18.24;47.39;99622.50;2068910;28;20025;-69
2021/04/10 00:28:47;;;;;;;5.57;2.83;;;;;;;18.23;47.31;99618.94;2068144;28;20035;-69
2021/04/10 00:29:47;;;;;;;3.50;2.60;;;;;;;18.24;47.14;99623.34;2068456;28;20029;-69
2021/04/10 00:30:48;;;;;;;4.17;2.80;;;;;;;18.26;47.33;99617.75;2068849;28;20065;-69
2021/04/10 00:33:46;;;;;;;4.68;2.58;;;;;;;18.19;47.32;99623.81;2064988;28;20037;-69
2021/04/10 00:34:47;;;;;;;3.55;2.40;;;;;;;18.19;47.24;99620.25;2070734;28;20045;-69
2021/04/10 00:35:47;;;;;;;4.97;2.97;;;;;;;18.19;47.30;99615.63;2063998;28;20050;-69
2021/04/10 00:36:48;;;;;;;6.17;3.33;;;;;;;18.21;47.29;99615.50;2064230;28;20437;-69
2021/04/10 00:37:48;;;;;;;4.03;2.30;;;;;;;18.22;47.24;99611.75;2068592;28;20033;-70
2021/04/10 00:38:48;;;;;;;4.17;3.00;;;;;;;18.23;47.34;99612.59;2067484;28;20052;-69
2021/04/10 00:39:49;;;;;;;4.70;2.70;;;;;;;18.24;47.20;99609.72;2064096;28;20026;-69
2021/04/10 00:40:49;;;;;;;3.87;2.60;;;;;;;18.25;47.37;99603.25;2062971;28;20061;-69
2021/04/10 00:41:50;;;;;;;3.50;2.53;;;;;;;18.25;47.37;99603.25;2071060;28;20459;-69
2021/04/10 00:42:50;;;;;;;4.63;2.80;;;;;;;18.25;47.27;99610.56;2069484;28;20017;-69
2021/04/10 00:43:50;;;;;;;3.33;2.23;;;;;;;18.26;47.36;99606.84;2070173;28;20080;-69
2021/04/10 00:44:51;;;;;;;7.30;2.60;;;;;;;18.25;47.30;99603.25;2070745;28;20053;-69
2021/04/10 00:45:52;;;;;;;5.17;2.70;;;;;;;18.26;47.42;99595.94;2065802;28;20029;-69
2021/04/10 00:46:52;;;;;;;4.27;2.57;;;;;;;18.27;47.21;99601.22;2065538;28;20105;-70
2021/04/10 00:47:53;;;;;;;3.93;2.50;;;;;;;18.28;47.33;99594.75;2065764;28;20033;-70
2021/04/10 00:48:53;;;;;;;3.40;2.17;;;;;;;18.27;47.29;99598.47;2066023;28;20034;-70
2021/04/10 00:49:53;;;;;;;4.60;2.60;;;;;;;18.27;47.17;99595.75;2070804;28;20053;-69
2021/04/10 00:50:55;;;;;;;4.97;2.70;;;;;;;18.30;47.26;99592.75;2069533;28;20124;-69
2021/04/10 00:51:59;;;;;;;4.03;2.88;;;;;;;18.29;47.28;99590.16;2069876;28;20041;-70
2021/04/10 00:52:59;;;;;;;3.65;2.63;;;;;;;18.29;47.34;99591.00;2070398;28;20069;-70
2021/04/10 00:54:00;;;;;;;4.50;2.50;;;;;;;18.28;47.23;99586.56;2069477;28;20041;-69
2021/04/10 00:55:04;;;;;;;5.03;2.33;;;;;;;18.27;47.30;99587.56;2070547;28;20038;-70
2021/04/10 00:56:06;;;;;;;3.63;2.40;;;;;;;18.28;47.05;99589.31;2070003;28;20121;-69
2021/04/10 00:57:07;;;;;;;4.25;2.47;;;;;;;18.27;47.32;99587.56;2069191;28;20567;-70
2021/04/10 00:58:07;;;;;;;3.33;2.60;;;;;;;18.26;47.33;99583.13;2069973;28;20392;-69
2021/04/10 00:59:08;;;;;;;3.40;2.50;;;;;;;18.26;47.22;99574.97;2068403;28;20022;-69
2021/04/10 01:00:09;;;;;;;11.87;2.27;;;;;;;18.26;47.46;99580.41;2065230;28;20069;-69
2021/04/10 01:01:09;;;;;;;4.07;2.22;;;;;;;18.27;47.20;99582.13;2069864;28;20045;-70
2021/04/10 01:02:10;;;;;;;3.77;2.23;;;;;;;18.27;47.21;99581.25;2070390;28;20057;-69
2021/04/10 01:03:11;;;;;;;4.77;2.70;;;;;;;18.27;47.36;99575.81;2064315;28;20026;-70
2021/04/10 01:04:12;;;;;;;4.10;2.50;;;;;;;18.26;47.29;99583.13;2067311;28;20029;-70
2021/04/10 01:05:13;;;;;;;3.28;2.17;;;;;;;18.26;47.42;99577.69;2070800;28;20030;-70
2021/04/10 01:06:14;;;;;;;3.53;2.00;;;;;;;18.28;47.24;99577.53;2066164;28;20057;-70
2021/04/10 01:07:14;;;;;;;4.77;2.70;;;;;;;18.26;47.29;99574.97;2063201;28;20054;-70
2021/04/10 01:08:16;;;;;;;3.53;2.10;;;;;;;18.26;47.18;99569.50;2067249;28;20045;-70
2021/04/10 01:09:16;;;;;;;3.03;2.15;;;;;;;18.25;47.37;99575.97;2069161;28;20050;-70
2021/04/10 01:10:17;;;;;;;4.30;2.33;;;;;;;18.25;47.39;99562.34;2070593;28;20029;-70
2021/04/10 01:11:51;;;;;;;5.40;2.60;;;;;;;18.23;47.53;99567.09;2068649;28;20094;-70
2021/04/10 01:13:07;;;;;;;3.20;2.20;;;;;;;18.20;47.48;99567.38;2067784;28;20057;-70
2021/04/10 01:14:22;;;;;;;3.35;2.20;;;;;;;18.20;47.57;99564.66;2069391;28;20518;-70
2021/04/10 01:15:49;;;;;;;3.60;2.13;;;;;;;18.20;47.44;99564.66;2068110;28;20508;-70
2021/04/10 01:17:06;;;;;;;4.18;2.72;;;;;;;18.20;47.42;99567.38;2065508;28;20091;-70
2021/04/10 01:18:29;;;;;;;5.28;2.92;;;;;;;18.20;47.50;99564.66;2068988;28;20030;-70
2021/04/10 01:20:10;;;;;;;3.28;2.30;;;;;;;18.18;47.53;99562.09;2064585;28;20046;-70
2021/04/10 01:21:38;;;;;;;3.47;2.05;;;;;;;18.18;47.50;99566.72;2066765;28;20132;-70
2021/04/10 01:22:44;;;;;;;4.53;2.40;;;;;;;18.18;47.44;99567.56;2063380;28;20483;-70
2021/04/10 01:24:21;;;;;;;2.72;1.98;;;;;;;18.19;47.51;99560.22;2070371;28;20092;-70
2021/04/10 01:25:37;;;;;;;3.58;2.47;;;;;;;18.16;47.54;99563.28;2066819;28;20419;-70
2021/04/10 01:26:50;;;;;;;2.85;1.95;;;;;;;18.15;47.63;99559.69;2070047;28;20021;-70
2021/04/10 01:27:57;;;;;;;3.58;2.38;;;;;;;18.15;47.49;99564.28;2069561;28;20080;-70
2021/04/10 01:29:03;;;;;;;4.53;2.45;;;;;;;18.15;47.55;99556.09;2069302;28;20034;-70
2021/04/10 01:30:08;;;;;;;3.17;2.20;;;;;;;18.16;47.37;99555.94;2070546;28;20058;-70
2021/04/10 01:31:09;;;;;;;2.65;1.95;;;;;;;18.17;47.59;99554.06;2065837;28;20045;-70
2021/04/10 01:32:13;;;;;;;3.95;2.35;;;;;;;18.17;47.37;99554.91;2065315;28;20030;-70
2021/04/10 01:33:18;;;;;;;4.20;2.05;;;;;;;18.18;47.49;99556.66;2066813;28;20123;-70
2021/04/10 01:34:27;;;;;;;4.15;2.55;;;;;;;18.19;47.55;99547.44;2070502;28;20095;-70
2021/04/10 01:35:33;;;;;;;4.03;2.42;;;;;;;18.19;47.51;99549.31;2064622;28;20027;-70
2021/04/10 01:36:39;;;;;;;3.25;2.10;;;;;;;18.18;47.42;99556.66;2068568;28;20037;-70
2021/04/10 01:37:46;;;;;;;3.83;1.95;;;;;;;18.18;47.54;99547.63;2070195;28;20042;-70
2021/04/10 01:38:49;;;;;;;2.65;1.80;;;;;;;18.18;47.62;99550.34;2067017;28;20042;-70
2021/04/10 01:39:50;;;;;;;3.40;2.63;;;;;;;18.19;47.50;99552.91;2071047;28;20060;-70
2021/04/10 01:40:54;;;;;;;3.97;2.22;;;;;;;18.18;47.54;99547.63;2071703;28;20419;-70
2021/04/10 01:41:55;;;;;;;4.07;2.40;;;;;;;18.18;47.57;99550.34;2071523;28;20401;-70
2021/04/10 01:42:57;;;;;;;4.03;2.33;;;;;;;18.18;47.31;99544.88;2071781;28;20117;-70
2021/04/10 01:43:59;;;;;;;3.20;2.08;;;;;;;18.17;47.46;99546.72;2070876;28;20084;-70
2021/04/10 01:45:01;;;;;;;3.22;2.40;;;;;;;18.18;47.41;99551.19;2070852;28;20030;-70
2021/04/10 01:46:03;;;;;;;3.25;2.20;;;;;;;18.19;47.45;99546.59;2069278;28;20411;-70
2021/04/10 01:47:06;;;;;;;4.25;2.55;;;;;;;18.18;47.49;99545.75;2070186;28;20037;-70
2021/04/10 01:48:10;;;;;;;3.75;2.40;;;;;;;18.18;47.46;99544.88;2070658;28;20044;-70
2021/04/10 01:49:10;;;;;;;3.80;2.25;;;;;;;18.17;47.44;99534.97;2055797;28;20414;-70
2021/04/10 01:50:12;;;;;;;5.43;2.73;;;;;;;18.16;47.46;99541.47;2063893;28;20116;-70
2021/04/10 01:51:14;;;;;;;2.83;2.00;;;;;;;18.17;47.44;99543.16;2067043;28;20479;-70
2021/04/10 01:52:17;;;;;;;2.97;2.33;;;;;;;18.17;47.35;99540.44;2071650;28;20378;-70
2021/04/10 01:53:19;;;;;;;3.00;2.05;;;;;;;18.17;47.51;99543.16;2070484;28;20108;-70
2021/04/10 01:54:20;;;;;;;4.25;2.25;;;;;;;18.17;47.61;99549.47;2070922;28;20134;-70
2021/04/10 01:55:22;;;;;;;3.10;1.60;;;;;;;18.17;47.53;99544.00;2069972;28;20033;-70
2021/04/10 01:56:24;;;;;;;2.90;1.90;;;;;;;18.19;47.50;99547.44;2067369;28;20038;-70
2021/04/10 01:57:25;;;;;;;4.03;2.50;;;;;;;18.19;47.65;99546.59;2072038;28;20087;-70
2021/04/10 01:58:27;;;;;;;2.70;1.97;;;;;;;18.19;47.47;99541.97;2071201;28;20524;-70
2021/04/10 01:59:28;;;;;;;;;;;;;;;18.16;47.69;99541.47;2072008;28;20655;-70
2021/04/10 02:00:35;;;;;;;4.28;2.45;;;;;;;18.16;47.64;99552.38;2071416;28;19913;-70
2021/04/10 02:01:37;;;;;;;5.30;2.45;;;;;;;18.18;47.59;99547.63;2067958;28;20117;-70
2021/04/10 02:02:40;;;;;;;4.75;2.20;;;;;;;18.17;47.45;99549.47;2070971;28;20029;-70
2021/04/10 02:03:46;;;;;;;2.60;1.77;;;;;;;18.17;47.52;99543.16;2071202;28;20033;-70
2021/04/10 02:04:47;;;;;;;3.55;2.30;;;;;;;18.18;47.67;99545.75;2067947;28;20030;-70
2021/04/10 02:05:50;;;;;;;2.50;2.17;;;;;;;18.19;47.58;99546.59;2071527;28;20022;-70
2021/04/10 02:06:52;;;;;;;2.60;1.90;;;;;;;18.19;47.50;99552.03;2068307;28;20112;-70
2021/04/10 02:07:53;;;;;;;3.45;2.42;;;;;;;18.21;47.70;99544.56;2071280;28;20044;-70
2021/04/10 02:08:55;;;;;;;3.63;2.13;;;;;;;18.22;47.61;99546.25;2071674;28;20049;-70
2021/04/10 02:09:55;;;;;;;3.80;2.50;;;;;;;18.21;47.57;99539.97;2070366;28;20026;-70
2021/04/10 02:10:59;;;;;;;3.60;2.17;;;;;;;18.21;47.70;99539.09;2070621;28;20507;-69
2021/04/10 02:12:01;;;;;;;4.40;2.78;;;;;;;18.21;47.50;99533.66;2065460;28;20046;-70
2021/04/10 02:13:02;;;;;;;2.58;2.10;;;;;;;18.21;47.59;99534.50;2071543;28;20122;-70
2021/04/10 02:14:05;;;;;;;3.45;1.92;;;;;;;18.19;47.42;99533.78;2071005;28;20037;-70
2021/04/10 02:15:06;;;;;;;3.58;2.00;;;;;;;18.20;47.48;99535.53;2070916;28;20270;-70
2021/04/10 02:16:06;;;;;;;2.53;1.77;;;;;;;18.21;47.57;99539.09;2067914;28;20057;-70
2021/04/10 02:17:08;;;;;;;2.90;2.00;;;;;;;18.21;47.54;99536.38;2070779;28;20038;-70
2021/04/10 02:18:09;;;;;;;3.92;2.17;;;;;;;18.20;47.57;99535.53;2070669;28;20030;-70
2021/04/10 02:19:09;;;;;;;3.67;2.40;;;;;;;18.21;47.66;99536.38;2071085;28;20503;-70
2021/04/10 02:20:12;;;;;;;3.40;2.10;;;;;;;18.21;47.54;99539.09;2071307;28;20269;-70
2021/04/10 02:21:12;;;;;;;3.60;1.92;;;;;;;18.21;47.50;99539.09;2071315;28;20441;-70
2021/04/10 02:22:15;;;;;;;3.63;2.10;;;;;;;18.20;47.44;99529.19;2065210;28;20084;-70
2021/04/10 02:23:19;;;;;;;3.42;2.17;;;;;;;18.20;47.62;99526.47;2070260;28;20025;-70
2021/04/10 02:24:19;;;;;;;3.58;1.92;;;;;;;18.19;47.71;99532.94;2071034;28;20034;-70
2021/04/10 02:25:22;;;;;;;3.27;2.83;;;;;;;18.19;47.64;99535.69;2071103;28;20045;-70
2021/04/10 02:26:56;;;;;;;3.10;2.25;;;;;;;18.18;47.68;99528.53;2069984;28;20030;-70
2021/04/10 02:27:57;;;;;;;2.63;2.00;;;;;;;18.18;47.75;99528.53;2069207;28;20021;-70
2021/04/10 02:28:59;;;;;;;2.92;2.30;;;;;;;18.19;47.74;99541.97;2070862;28;20033;-70
2021/04/10 02:30:00;;;;;;;2.78;1.80;;;;;;;18.18;47.68;99533.97;2070582;28;20073;-70
2021/04/10 02:31:05;;;;;;;2.75;2.10;;;;;;;18.18;47.73;99531.25;2070668;28;20058;-70
2021/04/10 02:32:35;;;;;;;1.75;1.60;;;;;;;18.18;47.78;99533.97;2071084;28;20560;-70
2021/04/10 02:33:39;;;;;;;3.50;2.30;;;;;;;18.15;47.64;99535.16;2069936;28;20022;-70
2021/04/10 02:35:35;;;;;;;3.53;2.22;;;;;;;18.14;47.78;99529.84;2071454;28;20033;-70
2021/04/10 02:36:38;;;;;;;2.63;2.28;;;;;;;18.15;47.76;99539.72;2062233;28;20125;-70
2021/04/10 02:37:40;;;;;;;3.55;2.20;;;;;;;18.15;47.62;99531.53;2063639;28;20041;-70
2021/04/10 02:38:42;;;;;;;;;;;;;;;18.11;47.66;99538.34;2069980;28;20509;-70
2021/04/10 02:39:44;;;;;;;3.33;1.83;;;;;;;18.13;47.69;99525.41;2069255;28;19913;-70
2021/04/10 02:40:48;;;;;;;;;;;;;;;18.10;47.91;99531.16;2071492;28;20030;-70
2021/04/10 02:41:51;;;;;;;3.65;1.90;;;;;;;18.12;47.78;99523.69;2070352;28;20000;-70
2021/04/10 02:42:52;;;;;;;2.67;1.73;;;;;;;18.11;47.81;99517.38;2071619;28;20698;-70
2021/04/10 02:43:59;;;;;;;4.87;2.10;;;;;;;18.13;47.64;99519.97;2067706;28;20018;-70
2021/04/10 02:45:04;;;;;;;2.80;1.80;;;;;;;18.13;47.83;99522.69;2071255;28;20453;-70
2021/04/10 02:46:07;;;;;;;3.38;2.08;;;;;;;18.14;47.63;99519.78;2070895;28;20034;-70
2021/04/10 02:47:10;;;;;;;2.95;1.63;;;;;;;18.16;47.69;99523.22;2068473;28;20634;-70
2021/04/10 02:48:22;;;;;;;2.97;1.98;;;;;;;18.14;47.79;99521.66;2070997;28;20574;-70
2021/04/10 02:49:27;;;;;;;2.55;1.85;;;;;;;18.12;47.66;99512.78;2069073;28;20108;-70
2021/04/10 02:50:29;;;;;;;3.67;2.00;;;;;;;18.13;47.80;99520.81;2067942;28;20100;-70
2021/04/10 02:51:49;;;;;;;2.58;2.17;;;;;;;18.14;47.49;99516.19;2063306;28;20113;-70
2021/04/10 02:52:52;;;;;;;3.25;1.83;;;;;;;18.12;47.63;99510.03;2064934;28;20031;-70
2021/04/10 02:53:54;;;;;;;2.90;2.03;;;;;;;18.13;47.61;99511.78;2071271;28;20539;-70
2021/04/10 02:54:58;;;;;;;2.95;2.05;;;;;;;18.12;47.56;99508.16;2070617;28;20512;-69
2021/04/10 02:56:01;;;;;;;3.13;1.73;;;;;;;18.13;47.62;99509.03;2070200;28;20026;-70
2021/04/10 02:57:17;;;;;;;3.83;2.47;;;;;;;18.13;47.49;99509.03;2064468;28;20080;-70
2021/04/10 02:58:20;;;;;;;3.10;2.20;;;;;;;18.12;47.79;99513.63;2070941;28;20428;-70
2021/04/10 02:59:22;;;;;;;3.50;1.77;;;;;;;18.13;47.61;99514.50;2066131;28;20018;-70
2021/04/10 03:00:24;;;;;;;3.63;2.00;;;;;;;18.13;47.73;99509.91;2070832;28;20029;-70
2021/04/10 03:01:25;;;;;;;2.78;1.75;;;;;;;18.15;47.56;99515.16;2070087;28;20026;-70
2021/04/10 03:02:26;;;;;;;2.90;1.88;;;;;;;18.12;47.75;99512.78;2071348;28;20021;-70
2021/04/10 03:03:29;;;;;;;2.42;1.70;;;;;;;18.13;47.63;99512.63;2071126;28;20017;-70
2021/04/10 03:04:30;;;;;;;3.55;2.00;;;;;;;18.12;47.83;99510.88;2067065;28;20180;-70
2021/04/10 03:05:31;;;;;;;2.73;2.17;;;;;;;18.12;47.67;99512.78;2066016;28;20026;-70
2021/04/10 03:06:32;;;;;;;3.45;2.05;;;;;;;18.12;47.67;99512.78;2067841;28;20029;-70
2021/04/10 03:07:33;;;;;;;3.17;2.03;;;;;;;18.13;47.64;99511.78;2067353;28;20033;-70
2021/04/10 03:08:34;;;;;;;2.78;2.20;;;;;;;18.13;47.55;99515.34;2065695;28;20031;-70
2021/04/10 03:09:41;;;;;;;3.03;1.97;;;;;;;18.11;47.74;99511.06;2069962;28;20555;-70
2021/04/10 03:10:45;;;;;;;3.22;1.67;;;;;;;18.12;47.63;99512.78;2070657;28;20030;-70
2021/04/10 03:11:47;;;;;;;2.00;1.65;;;;;;;18.11;47.71;99513.78;2071115;28;20046;-70
2021/04/10 03:12:48;;;;;;;2.47;1.80;;;;;;;18.10;47.63;99514.78;2070977;28;20062;-70
2021/04/10 03:13:48;;;;;;;3.93;2.07;;;;;;;18.10;47.58;99515.66;2069537;28;20091;-70
2021/04/10 03:14:50;;;;;;;3.43;2.37;;;;;;;18.11;47.66;99511.06;2069252;28;20029;-70
2021/04/10 03:15:53;;;;;;;2.28;2.05;;;;;;;18.12;47.55;99512.78;2065301;28;20496;-70
2021/04/10 03:16:55;;;;;;;2.45;1.70;;;;;;;18.13;47.70;99504.44;2068094;28;20477;-70
2021/04/10 03:17:56;;;;;;;2.65;1.80;;;;;;;18.14;47.62;99505.28;2070777;28;20098;-70
2021/04/10 03:18:58;;;;;;;3.13;2.03;;;;;;;18.14;47.92;99508.03;2070358;28;20086;-68
2021/04/10 03:20:00;;;;;;;2.97;1.80;;;;;;;18.15;47.56;99512.44;2068637;28;20026;-69
2021/04/10 03:21:04;;;;;;;5.90;2.10;;;;;;;18.14;47.62;99505.28;2071493;28;20040;-69
2021/04/10 03:22:05;;;;;;;2.45;1.90;;;;;;;18.14;47.83;99505.28;2070623;28;20124;-69
2021/04/10 03:23:06;;;;;;;2.50;1.63;;;;;;;18.15;47.74;99507.00;2070324;28;20030;-69
2021/04/10 03:24:07;;;;;;;4.57;2.10;;;;;;;18.15;47.56;99507.00;2070428;28;20026;-69
2021/04/10 03:25:08;;;;;;;2.65;1.77;;;;;;;18.14;47.72;99508.03;2069650;28;20404;-69
2021/04/10 03:26:08;;;;;;;2.85;1.73;;;;;;;18.15;47.66;99504.25;2063292;28;20038;-69
2021/04/10 03:27:10;;;;;;;2.93;2.07;;;;;;;18.15;47.86;99507.00;2067002;28;20064;-69
2021/04/10 03:28:12;;;;;;;3.90;2.08;;;;;;;18.16;47.96;99503.25;2070987;28;20034;-69
2021/04/10 03:29:13;;;;;;;3.35;2.22;;;;;;;18.18;47.62;99501.25;2063887;28;20026;-69
2021/04/10 03:30:15;;;;;;;2.97;1.88;;;;;;;18.18;47.67;99498.50;2066087;28;20036;-69
2021/04/10 03:31:16;;;;;;;2.55;1.58;;;;;;;18.17;47.61;99494.06;2071288;28;20037;-69
2021/04/10 03:32:17;;;;;;;2.50;2.10;;;;;;;18.17;47.66;99494.91;2065958;28;20512;-69
2021/04/10 03:33:17;;;;;;;3.97;2.30;;;;;;;18.18;47.73;99487.59;2063048;28;20449;-69
2021/04/10 03:34:36;;;;;;;2.17;1.60;;;;;;;18.15;47.61;99485.16;2063656;28;20034;-69
2021/04/10 03:35:37;;;;;;;2.22;1.70;;;;;;;18.14;47.70;99489.78;2063332;28;20134;-69
2021/04/10 03:36:38;;;;;;;2.70;1.80;;;;;;;18.15;47.76;99491.50;2062730;28;20830;-69
2021/04/10 03:37:39;;;;;;;3.30;2.33;;;;;;;18.15;47.64;99487.91;2068647;28;20420;-69
2021/04/10 03:38:42;;;;;;;3.65;2.08;;;;;;;18.16;47.86;99489.63;2068384;28;20136;-69
2021/04/10 03:39:42;;;;;;;2.60;1.77;;;;;;;18.17;47.76;99488.59;2070831;28;20034;-69
2021/04/10 03:40:43;;;;;;;2.53;1.50;;;;;;;18.16;47.68;99492.34;2065740;28;20038;-69
2021/04/10 03:41:43;;;;;;;3.00;2.10;;;;;;;18.15;47.76;99488.78;2066763;28;20049;-68
2021/04/10 03:42:44;;;;;;;4.20;2.03;;;;;;;18.16;47.67;99492.34;2070136;28;20104;-69
2021/04/10 03:43:45;;;;;;;3.23;1.57;;;;;;;18.16;47.64;99486.91;2068173;28;20028;-69
2021/04/10 03:44:45;;;;;;;3.13;1.90;;;;;;;18.14;47.72;99491.66;2070308;28;20087;-69
2021/04/10 03:45:45;;;;;;;2.93;1.93;;;;;;;18.15;47.89;99490.63;2073939;28;20120;-69
2021/04/10 03:46:46;;;;;;;2.17;1.57;;;;;;;18.15;47.72;99487.91;2076249;28;20059;-69
2021/04/10 03:47:47;;;;;;;2.72;1.67;;;;;;;18.15;47.55;99482.44;2066828;28;20038;-70
2021/04/10 03:48:47;;;;;;;3.23;1.80;;;;;;;18.15;47.62;99482.44;2070422;28;20057;-69
2021/04/10 03:49:48;;;;;;;2.27;1.80;;;;;;;18.14;47.80;99483.47;2070575;28;20025;-70
2021/04/10 03:50:48;;;;;;;3.30;1.53;;;;;;;18.15;47.60;99479.72;2070592;28;20113;-70
2021/04/10 03:51:49;;;;;;;2.33;1.63;;;;;;;18.14;47.69;99478.00;2069972;28;20096;-70
2021/04/10 03:52:50;;;;;;;2.83;1.70;;;;;;;18.13;47.52;99482.63;2070711;28;20030;-69
2021/04/10 03:53:51;;;;;;;2.70;1.90;;;;;;;18.16;47.63;99481.44;2070912;28;20424;-70
2021/04/10 03:54:51;;;;;;;2.27;1.80;;;;;;;18.14;47.77;99478.88;2068183;28;20034;-69
2021/04/10 03:55:52;;;;;;;2.60;1.67;;;;;;;18.15;47.72;99486.06;2070979;28;20064;-69
2021/04/10 03:56:52;;;;;;;4.67;1.90;;;;;;;18.15;47.71;99485.16;2070589;28;20496;-69
2021/04/10 03:57:53;;;;;;;1.63;1.33;;;;;;;18.15;47.75;99483.31;2070739;28;20026;-69
2021/04/10 03:58:53;;;;;;;3.00;1.63;;;;;;;18.14;47.76;99489.78;2069327;28;20033;-69
2021/04/10 03:59:54;;;;;;;2.90;1.70;;;;;;;18.15;47.83;99491.50;2070387;28;20058;-70
2021/04/10 04:00:55;;;;;;;2.53;1.70;;;;;;;18.16;47.62;99489.63;2071326;28;20190;-69
2021/04/10 04:01:55;;;;;;;2.70;1.60;;;;;;;18.15;47.83;99490.63;2071292;28;20754;-69
2021/04/10 04:02:57;;;;;;;2.07;1.53;;;;;;;18.14;47.68;99492.50;2070614;28;20531;-70
2021/04/10 04:03:57;;;;;;;2.55;1.80;;;;;;;18.14;47.62;99491.66;2067942;28;20053;-69
2021/04/10 04:04:58;;;;;;;2.67;1.57;;;;;;;18.15;47.75;99493.34;2071091;28;20026;-69
2021/04/10 04:06:54;;;;;;;2.30;1.77;;;;;;;18.15;47.58;99496.06;2070030;28;20444;-69
2021/04/10 04:07:55;;;;;;;2.25;1.52;;;;;;;18.11;47.88;99495.56;2069954;28;20026;-69
2021/04/10 04:08:55;;;;;;;2.30;1.83;;;;;;;18.13;47.70;99503.59;2071156;28;20033;-69
2021/04/10 04:09:56;;;;;;;1.97;1.57;;;;;;;18.15;47.84;99501.53;2067435;28;20118;-69
2021/04/10 04:10:56;;;;;;;2.90;2.67;;;;;;;18.13;47.80;99498.13;2069798;28;20044;-69
2021/04/10 04:11:56;;;;;;;4.13;2.00;;;;;;;18.11;47.82;99500.16;2071046;28;20030;-69
2021/04/10 04:12:57;;;;;;;3.80;1.90;;;;;;;18.11;47.79;99500.16;2069968;28;20029;-69
2021/04/10 04:13:57;;;;;;;2.27;1.67;;;;;;;18.11;47.75;99506.47;2070662;28;20425;-70
2021/04/10 04:14:58;;;;;;;2.23;1.57;;;;;;;18.12;47.75;99499.97;2069375;28;20029;-69
2021/04/10 04:15:58;;;;;;;3.37;1.70;;;;;;;18.11;47.75;99500.16;2069483;28;20037;-69
2021/04/10 04:17:00;;;;;;;2.40;1.53;;;;;;;18.11;47.89;99506.47;2069318;28;20022;-69
2021/04/10 04:18:00;;;;;;;2.15;1.83;;;;;;;18.10;47.74;99499.28;2066666;28;20045;-69
2021/04/10 04:19:00;;;;;;;2.40;1.60;;;;;;;18.10;47.81;99499.28;2070832;28;20041;-69
2021/04/10 04:20:01;;;;;;;2.90;1.80;;;;;;;18.10;47.72;99506.59;2070866;28;20033;-69
2021/04/10 04:21:02;;;;;;;2.50;1.90;;;;;;;18.10;47.79;99506.59;2070860;28;20034;-70
2021/04/10 04:22:03;;;;;;;2.47;1.65;;;;;;;18.09;47.89;99502.19;2069950;28;20026;-70
2021/04/10 04:23:03;;;;;;;2.77;1.97;;;;;;;18.09;47.88;99503.03;2070100;28;20060;-70
2021/04/10 04:24:04;;;;;;;2.97;2.23;;;;;;;18.10;47.96;99503.88;2070875;28;20040;-69
2021/04/10 04:25:07;;;;;;;3.38;1.65;;;;;;;18.10;47.84;99498.44;2069940;28;20564;-69
2021/04/10 04:26:08;;;;;;;4.55;2.10;;;;;;;18.10;47.73;99498.44;2070957;28;20049;-70
2021/04/10 04:27:08;;;;;;;2.35;1.70;;;;;;;18.07;47.83;99498.75;2069866;28;20076;-69
2021/04/10 04:28:09;;;;;;;3.10;1.60;;;;;;;18.08;47.65;99495.00;2069294;28;20125;-69
2021/04/10 04:29:09;;;;;;;2.57;1.90;;;;;;;18.07;47.79;99488.69;2070096;28;20036;-69
2021/04/10 04:30:12;;;;;;;2.00;1.60;;;;;;;18.10;47.82;99498.44;2070345;28;20108;-69
2021/04/10 04:31:12;;;;;;;3.50;1.65;;;;;;;18.10;47.93;99491.09;2070901;28;20037;-69
2021/04/10 04:32:13;;;;;;;1.97;1.27;;;;;;;18.11;47.82;99490.09;2069191;28;20044;-69
2021/04/10 04:33:13;;;;;;;2.60;1.70;;;;;;;18.11;47.78;99497.44;2061529;28;20132;-69
2021/04/10 04:34:14;;;;;;;3.83;1.57;;;;;;;18.10;47.82;99491.09;2061726;28;20116;-69
2021/04/10 04:35:14;;;;;;;2.50;1.80;;;;;;;18.13;47.83;99487.22;2066110;28;20025;-69
2021/04/10 04:36:15;;;;;;;2.73;1.97;;;;;;;18.11;47.88;99490.09;2070903;28;20049;-69
2021/04/10 04:37:15;;;;;;;1.73;1.40;;;;;;;18.12;47.70;99488.22;2070121;28;20030;-69
2021/04/10 04:38:16;;;;;;;2.47;1.60;;;;;;;18.12;47.76;99485.50;2070701;28;20206;-69
2021/04/10 04:39:16;;;;;;;2.37;1.57;;;;;;;18.13;47.90;99487.22;2069283;28;20507;-69
2021/04/10 04:40:17;;;;;;;2.43;1.60;;;;;;;18.11;47.86;99486.53;2066043;28;20018;-69
2021/04/10 04:41:18;;;;;;;1.70;1.33;;;;;;;18.13;47.87;99488.06;2070840;28;20034;-69
2021/04/10 04:42:18;;;;;;;1.93;1.57;;;;;;;18.12;47.88;99486.34;2069094;28;20437;-69
2021/04/10 04:43:18;;;;;;;2.37;1.73;;;;;;;18.13;47.79;99487.22;2069713;28;20590;-69
2021/04/10 04:44:19;;;;;;;2.67;1.77;;;;;;;18.12;47.99;99480.03;2069627;28;20112;-69
2021/04/10 04:45:19;;;;;;;3.37;1.97;;;;;;;18.14;47.77;99492.50;2068932;28;20030;-69
2021/04/10 04:46:20;;;;;;;2.13;1.70;;;;;;;18.16;47.61;99484.16;2068783;28;20369;-69
2021/04/10 04:47:20;;;;;;;1.63;1.47;;;;;;;18.15;47.70;99490.63;2065736;28;20045;-69
2021/04/10 04:48:21;;;;;;;2.30;1.83;;;;;;;18.16;47.70;99486.91;2066024;28;20029;-69
2021/04/10 04:49:21;;;;;;;3.53;1.70;;;;;;;18.15;47.87;99485.16;2070244;28;20026;-69
2021/04/10 04:50:22;;;;;;;2.23;1.50;;;;;;;18.14;47.87;99486.19;2069208;28;20393;-69
2021/04/10 04:51:23;;;;;;;2.57;1.63;;;;;;;18.13;47.74;99485.34;2065427;28;20022;-69
2021/04/10 04:52:31;;;;;;;1.87;1.50;;;;;;;18.11;47.62;99483.78;2069428;28;20026;-69
2021/04/10 04:53:31;;;;;;;1.88;1.40;;;;;;;18.14;47.60;99484.31;2070117;28;20030;-69
2021/04/10 04:54:32;;;;;;;2.20;1.63;;;;;;;18.15;47.76;99490.63;2070137;28;20072;-70
2021/04/10 04:55:32;;;;;;;2.03;1.57;;;;;;;18.16;47.69;99489.63;2069611;28;20095;-70
2021/04/10 04:56:33;;;;;;;2.50;1.40;;;;;;;18.14;47.60;99494.38;2070634;28;20056;-69
2021/04/10 04:57:33;;;;;;;2.63;1.67;;;;;;;18.14;47.74;99486.19;2065740;28;20064;-69
2021/04/10 04:58:34;;;;;;;2.40;1.70;;;;;;;18.12;47.71;99493.69;2068788;28;20405;-70
2021/04/10 04:59:34;;;;;;;3.13;1.83;;;;;;;18.13;47.71;99496.25;2070220;28;20032;-70